createdAt,value
2017-02-02T00:00:12.811Z,0
2017-02-02T00:01:13.152Z,0
2017-02-02T00:02:13.179Z,0
2017-02-02T00:03:13.101Z,0
2017-02-02T00:04:13.070Z,0
2017-02-02T00:05:12.248Z,0
2017-02-02T00:06:13.019Z,0
2017-02-02T00:07:12.635Z,0
2017-02-02T00:08:12.568Z,0
2017-02-02T00:09:12.138Z,0
2017-02-02T00:10:12.525Z,0
2017-02-02T00:11:12.485Z,0
2017-02-02T00:12:12.975Z,0
2017-02-02T00:13:12.856Z,0
2017-02-02T00:14:11.621Z,0
2017-02-02T00:15:12.791Z,0
2017-02-02T00:16:12.765Z,0
2017-02-02T00:17:12.737Z,0
2017-02-02T00:18:12.733Z,0
2017-02-02T00:19:12.702Z,0
2017-02-02T00:20:12.273Z,0
2017-02-02T00:21:12.241Z,0
2017-02-02T00:22:12.209Z,0
2017-02-02T00:23:11.787Z,0
2017-02-02T00:24:12.570Z,0
2017-02-02T00:25:12.133Z,0
2017-02-02T00:26:12.114Z,0
2017-02-02T00:27:11.282Z,0
2017-02-02T00:28:12.067Z,0
2017-02-02T00:29:12.444Z,0
2017-02-02T00:30:12.433Z,0
2017-02-02T00:31:12.007Z,0
2017-02-02T00:32:12.767Z,0
2017-02-02T00:33:12.340Z,0
2017-02-02T00:34:11.977Z,0
2017-02-02T00:35:12.724Z,0
2017-02-02T00:36:11.874Z,0
2017-02-02T00:37:11.444Z,0
2017-02-02T00:38:12.234Z,0
2017-02-02T00:39:11.800Z,0
2017-02-02T00:40:10.967Z,0
2017-02-02T00:41:12.623Z,0
2017-02-02T00:42:11.711Z,0
2017-02-02T00:43:11.291Z,0
2017-02-02T00:44:11.665Z,0
2017-02-02T00:45:12.103Z,0
2017-02-02T00:46:11.630Z,0
2017-02-02T00:47:12.427Z,0
2017-02-02T00:48:11.578Z,0
2017-02-02T00:49:11.960Z,0
2017-02-02T00:50:11.928Z,0
2017-02-02T00:51:11.116Z,0
2017-02-02T00:52:11.475Z,0
2017-02-02T00:53:11.067Z,0
2017-02-02T00:54:11.017Z,0
2017-02-02T00:55:11.002Z,0
2017-02-02T00:56:11.795Z,0
2017-02-02T00:57:10.933Z,0
2017-02-02T00:58:11.336Z,0
2017-02-02T00:59:11.703Z,0
2017-02-02T01:00:11.692Z,0
2017-02-02T01:01:11.662Z,0
2017-02-02T01:02:11.628Z,0
2017-02-02T01:03:11.223Z,0
2017-02-02T01:04:11.581Z,0
2017-02-02T01:05:11.559Z,0
2017-02-02T01:06:11.530Z,0
2017-02-02T01:07:11.111Z,0
2017-02-02T01:08:11.588Z,0
2017-02-02T01:09:11.067Z,0
2017-02-02T01:10:10.665Z,0
2017-02-02T01:11:11.419Z,0
2017-02-02T01:12:11.837Z,0
2017-02-02T01:13:11.363Z,0
2017-02-02T01:14:11.327Z,0
2017-02-02T01:15:10.545Z,0
2017-02-02T01:16:11.694Z,0
2017-02-02T01:17:11.269Z,0
2017-02-02T01:18:11.642Z,0
2017-02-02T01:19:11.621Z,0
2017-02-02T01:20:11.603Z,0
2017-02-02T01:21:11.169Z,0
2017-02-02T01:22:11.160Z,0
2017-02-02T01:23:11.145Z,0
2017-02-02T01:24:11.490Z,0
2017-02-02T01:25:10.779Z,0
2017-02-02T01:26:10.239Z,0
2017-02-02T01:27:11.024Z,0
2017-02-02T01:28:10.578Z,0
2017-02-02T01:29:11.376Z,0
2017-02-02T01:30:11.355Z,0
2017-02-02T01:31:11.316Z,0
2017-02-02T01:32:11.327Z,0
2017-02-02T01:33:10.884Z,0
2017-02-02T01:34:10.855Z,0
2017-02-02T01:35:10.864Z,0
2017-02-02T01:36:11.204Z,0
2017-02-02T01:37:10.364Z,0
2017-02-02T01:38:10.742Z,0
2017-02-02T01:39:10.333Z,0
2017-02-02T01:40:09.880Z,0
2017-02-02T01:41:10.271Z,0
2017-02-02T01:42:11.117Z,0
2017-02-02T01:43:10.641Z,0
2017-02-02T01:44:09.820Z,0
2017-02-02T01:45:10.209Z,0
2017-02-02T01:46:10.570Z,0
2017-02-02T01:47:09.729Z,0
2017-02-02T01:48:10.519Z,0
2017-02-02T01:49:10.487Z,0
2017-02-02T01:50:10.054Z,0
2017-02-02T01:51:10.439Z,0
2017-02-02T01:52:10.822Z,0
2017-02-02T01:53:09.967Z,0
2017-02-02T01:54:09.153Z,0
2017-02-02T01:55:10.343Z,0
2017-02-02T01:56:10.413Z,0
2017-02-02T01:57:10.420Z,0
2017-02-02T01:58:09.447Z,0
2017-02-02T01:59:09.419Z,0
2017-02-02T02:00:10.203Z,0
2017-02-02T02:01:10.593Z,0
2017-02-02T02:02:10.605Z,0
2017-02-02T02:03:10.151Z,0
2017-02-02T02:04:10.107Z,0
2017-02-02T02:05:10.094Z,0
2017-02-02T02:06:10.058Z,0
2017-02-02T02:07:09.228Z,0
2017-02-02T02:08:09.609Z,0
2017-02-02T02:09:09.183Z,0
2017-02-02T02:10:09.946Z,0
2017-02-02T02:11:10.370Z,0
2017-02-02T02:12:10.305Z,0
2017-02-02T02:13:09.895Z,0
2017-02-02T02:14:09.863Z,0
2017-02-02T02:15:09.483Z,0
2017-02-02T02:16:10.224Z,0
2017-02-02T02:17:09.393Z,0
2017-02-02T02:18:09.489Z,0
2017-02-02T02:19:09.333Z,0
2017-02-02T02:20:08.918Z,0
2017-02-02T02:21:09.291Z,0
2017-02-02T02:22:08.959Z,0
2017-02-02T02:23:10.094Z,0
2017-02-02T02:24:09.740Z,0
2017-02-02T02:25:09.188Z,0
2017-02-02T02:26:09.579Z,0
2017-02-02T02:27:08.798Z,0
2017-02-02T02:28:09.518Z,0
2017-02-02T02:29:09.487Z,0
2017-02-02T02:30:09.225Z,0
2017-02-02T02:31:09.055Z,0
2017-02-02T02:32:08.629Z,0
2017-02-02T02:33:09.002Z,0
2017-02-02T02:34:08.181Z,0
2017-02-02T02:35:09.432Z,0
2017-02-02T02:36:09.322Z,0
2017-02-02T02:37:08.502Z,0
2017-02-02T02:38:09.282Z,0
2017-02-02T02:39:08.461Z,0
2017-02-02T02:40:08.818Z,0
2017-02-02T02:41:08.411Z,0
2017-02-02T02:42:09.190Z,0
2017-02-02T02:43:09.150Z,0
2017-02-02T02:44:07.920Z,0
2017-02-02T02:45:09.105Z,0
2017-02-02T02:46:09.078Z,0
2017-02-02T02:47:08.687Z,0
2017-02-02T02:48:08.687Z,0
2017-02-02T02:49:09.426Z,0
2017-02-02T02:50:08.996Z,0
2017-02-02T02:51:08.955Z,0
2017-02-02T02:52:08.995Z,0
2017-02-02T02:53:08.915Z,0
2017-02-02T02:54:08.495Z,0
2017-02-02T02:55:08.100Z,0
2017-02-02T02:56:08.834Z,0
2017-02-02T02:57:08.822Z,0
2017-02-02T02:58:08.409Z,0
2017-02-02T02:59:07.962Z,0
2017-02-02T03:00:07.941Z,0
2017-02-02T03:01:08.720Z,0
2017-02-02T03:02:07.886Z,0
2017-02-02T03:03:08.309Z,0
2017-02-02T03:04:09.048Z,0
2017-02-02T03:05:09.048Z,0
2017-02-02T03:06:08.595Z,0
2017-02-02T03:07:07.763Z,0
2017-02-02T03:08:08.574Z,0
2017-02-02T03:09:08.526Z,0
2017-02-02T03:10:08.496Z,0
2017-02-02T03:11:08.884Z,0
2017-02-02T03:12:08.052Z,0
2017-02-02T03:13:08.078Z,0
2017-02-02T03:14:08.400Z,0
2017-02-02T03:15:08.779Z,0
2017-02-02T03:16:08.761Z,0
2017-02-02T03:17:07.922Z,0
2017-02-02T03:18:07.166Z,0
2017-02-02T03:19:08.306Z,0
2017-02-02T03:20:08.649Z,0
2017-02-02T03:21:08.630Z,0
2017-02-02T03:22:08.211Z,0
2017-02-02T03:23:08.194Z,0
2017-02-02T03:24:07.756Z,0
2017-02-02T03:25:08.140Z,0
2017-02-02T03:26:07.374Z,0
2017-02-02T03:27:08.116Z,0
2017-02-02T03:28:07.654Z,0
2017-02-02T03:29:07.646Z,0
2017-02-02T03:30:08.419Z,0
2017-02-02T03:31:07.999Z,0
2017-02-02T03:32:07.972Z,0
2017-02-02T03:33:08.012Z,0
2017-02-02T03:34:07.911Z,0
2017-02-02T03:35:07.087Z,0
2017-02-02T03:36:07.871Z,0
2017-02-02T03:37:07.034Z,0
2017-02-02T03:38:07.819Z,0
2017-02-02T03:39:07.860Z,0
2017-02-02T03:40:07.779Z,0
2017-02-02T03:41:07.744Z,0
2017-02-02T03:42:08.127Z,0
2017-02-02T03:43:06.897Z,0
2017-02-02T03:44:07.273Z,0
2017-02-02T03:45:07.712Z,0
2017-02-02T03:46:07.643Z,0
2017-02-02T03:47:07.191Z,0
2017-02-02T03:48:08.051Z,0
2017-02-02T03:49:07.954Z,0
2017-02-02T03:50:07.171Z,0
2017-02-02T03:51:07.922Z,0
2017-02-02T03:52:07.893Z,0
2017-02-02T03:53:07.460Z,0
2017-02-02T03:54:06.222Z,0
2017-02-02T03:55:07.811Z,0
2017-02-02T03:56:07.020Z,0
2017-02-02T03:57:07.772Z,0
2017-02-02T03:58:07.734Z,0
2017-02-02T03:59:07.717Z,0
2017-02-02T04:00:06.936Z,0
2017-02-02T04:01:07.266Z,0
2017-02-02T04:02:06.428Z,0
2017-02-02T04:03:06.887Z,0
2017-02-02T04:04:06.790Z,0
2017-02-02T04:05:06.817Z,0
2017-02-02T04:06:07.185Z,0
2017-02-02T04:07:06.814Z,0
2017-02-02T04:08:06.772Z,0
2017-02-02T04:09:06.664Z,0
2017-02-02T04:10:07.103Z,0
2017-02-02T04:11:06.633Z,0
2017-02-02T04:12:06.612Z,0
2017-02-02T04:13:06.167Z,0
2017-02-02T04:14:06.954Z,0
2017-02-02T04:15:06.520Z,0
2017-02-02T04:16:07.306Z,0
2017-02-02T04:17:06.469Z,0
2017-02-02T04:18:07.258Z,0
2017-02-02T04:19:06.425Z,0
2017-02-02T04:20:06.808Z,0
2017-02-02T04:21:06.817Z,0
2017-02-02T04:22:06.367Z,0
2017-02-02T04:23:06.404Z,0
2017-02-02T04:24:06.314Z,0
2017-02-02T04:25:06.289Z,0
2017-02-02T04:26:06.325Z,0
2017-02-02T04:27:06.234Z,0
2017-02-02T04:28:06.272Z,0
2017-02-02T04:29:06.293Z,0
2017-02-02T04:30:06.156Z,0
2017-02-02T04:31:06.552Z,0
2017-02-02T04:32:05.719Z,0
2017-02-02T04:33:06.149Z,0
2017-02-02T04:34:06.081Z,0
2017-02-02T04:35:06.490Z,0
2017-02-02T04:36:06.009Z,0
2017-02-02T04:37:05.986Z,0
2017-02-02T04:38:06.378Z,0
2017-02-02T04:39:06.346Z,0
2017-02-02T04:40:05.937Z,0
2017-02-02T04:41:05.904Z,0
2017-02-02T04:42:06.293Z,0
2017-02-02T04:43:06.295Z,0
2017-02-02T04:44:05.835Z,0
2017-02-02T04:45:06.208Z,0
2017-02-02T04:46:05.803Z,0
2017-02-02T04:47:05.923Z,0
2017-02-02T04:48:06.610Z,0
2017-02-02T04:49:06.099Z,0
2017-02-02T04:50:05.783Z,0
2017-02-02T04:51:06.069Z,0
2017-02-02T04:52:05.652Z,0
2017-02-02T04:53:06.010Z,0
2017-02-02T04:54:05.979Z,0
2017-02-02T04:55:06.368Z,0
2017-02-02T04:56:06.460Z,0
2017-02-02T04:57:06.318Z,0
2017-02-02T04:58:05.515Z,0
2017-02-02T04:59:06.277Z,0
2017-02-02T05:00:05.433Z,0
2017-02-02T05:01:05.835Z,0
2017-02-02T05:02:05.398Z,0
2017-02-02T05:03:04.957Z,0
2017-02-02T05:04:05.344Z,0
2017-02-02T05:05:04.523Z,0
2017-02-02T05:06:04.887Z,0
2017-02-02T05:07:04.913Z,0
2017-02-02T05:08:05.345Z,0
2017-02-02T05:09:05.722Z,0
2017-02-02T05:10:05.230Z,0
2017-02-02T05:11:05.167Z,0
2017-02-02T05:12:05.250Z,0
2017-02-02T05:13:05.131Z,0
2017-02-02T05:14:05.112Z,0
2017-02-02T05:15:05.999Z,0
2017-02-02T05:16:05.082Z,0
2017-02-02T05:17:05.037Z,0
2017-02-02T05:18:05.047Z,0
2017-02-02T05:19:05.397Z,0
2017-02-02T05:20:05.403Z,0
2017-02-02T05:21:05.434Z,0
2017-02-02T05:22:05.315Z,0
2017-02-02T05:23:04.490Z,0
2017-02-02T05:24:04.883Z,0
2017-02-02T05:25:05.293Z,0
2017-02-02T05:26:05.222Z,0
2017-02-02T05:27:05.712Z,0
2017-02-02T05:28:05.252Z,0
2017-02-02T05:29:05.141Z,0
2017-02-02T05:30:05.535Z,0
2017-02-02T05:31:05.151Z,0
2017-02-02T05:32:05.548Z,0
2017-02-02T05:33:05.054Z,0
2017-02-02T05:34:04.629Z,0
2017-02-02T05:35:04.217Z,0
2017-02-02T05:36:04.574Z,0
2017-02-02T05:37:04.557Z,0
2017-02-02T05:38:04.926Z,0
2017-02-02T05:39:04.515Z,0
2017-02-02T05:40:04.096Z,0
2017-02-02T05:41:04.062Z,0
2017-02-02T05:42:04.471Z,0
2017-02-02T05:43:04.474Z,0
2017-02-02T05:44:04.450Z,0
2017-02-02T05:45:04.767Z,0
2017-02-02T05:46:04.842Z,0
2017-02-02T05:47:04.731Z,0
2017-02-02T05:48:04.291Z,0
2017-02-02T05:49:04.329Z,0
2017-02-02T05:50:04.279Z,0
2017-02-02T05:51:04.219Z,0
2017-02-02T05:52:05.006Z,0
2017-02-02T05:53:04.571Z,0
2017-02-02T05:54:03.811Z,0
2017-02-02T05:55:04.528Z,0
2017-02-02T05:56:04.546Z,0
2017-02-02T05:57:04.477Z,0
2017-02-02T05:58:04.526Z,0
2017-02-02T05:59:04.417Z,0
2017-02-02T06:00:03.621Z,0
2017-02-02T06:01:04.377Z,0
2017-02-02T06:02:03.967Z,0
2017-02-02T06:03:04.384Z,0
2017-02-02T06:04:03.910Z,0
2017-02-02T06:05:04.372Z,0
2017-02-02T06:06:03.531Z,0
2017-02-02T06:07:03.427Z,0
2017-02-02T06:08:03.958Z,0
2017-02-02T06:09:04.191Z,0
2017-02-02T06:10:03.773Z,0
2017-02-02T06:11:04.130Z,0
2017-02-02T06:12:04.122Z,0
2017-02-02T06:13:04.096Z,0
2017-02-02T06:14:04.160Z,0
2017-02-02T06:15:03.639Z,0
2017-02-02T06:16:04.016Z,0
2017-02-02T06:17:03.594Z,0
2017-02-02T06:18:03.626Z,0
2017-02-02T06:19:03.531Z,0
2017-02-02T06:20:03.913Z,0
2017-02-02T06:21:03.894Z,0
2017-02-02T06:22:03.874Z,0
2017-02-02T06:23:03.530Z,0
2017-02-02T06:24:03.820Z,0
2017-02-02T06:25:03.833Z,0
2017-02-02T06:26:03.765Z,0
2017-02-02T06:27:03.360Z,0
2017-02-02T06:28:03.320Z,0
2017-02-02T06:29:04.240Z,0
2017-02-02T06:30:04.129Z,0
2017-02-02T06:31:03.259Z,0
2017-02-02T06:32:04.047Z,0
2017-02-02T06:33:04.060Z,0
2017-02-02T06:34:03.578Z,0
2017-02-02T06:35:03.686Z,0
2017-02-02T06:36:04.006Z,0
2017-02-02T06:37:03.156Z,0
2017-02-02T06:38:03.883Z,0
2017-02-02T06:39:03.463Z,0
2017-02-02T06:40:03.452Z,0
2017-02-02T06:41:03.397Z,0
2017-02-02T06:42:02.599Z,0
2017-02-02T06:43:03.362Z,0
2017-02-02T06:44:03.009Z,0
2017-02-02T06:45:02.507Z,0
2017-02-02T06:46:02.482Z,0
2017-02-02T06:47:03.313Z,0
2017-02-02T06:48:03.289Z,0
2017-02-02T06:49:02.803Z,0
2017-02-02T06:50:03.196Z,0
2017-02-02T06:51:02.755Z,0
2017-02-02T06:52:03.147Z,0
2017-02-02T06:53:03.547Z,0
2017-02-02T06:54:02.796Z,0
2017-02-02T06:55:02.659Z,0
2017-02-02T06:56:02.231Z,0
2017-02-02T06:57:02.205Z,0
2017-02-02T06:58:01.784Z,0
2017-02-02T06:59:02.154Z,0
2017-02-02T07:00:01.732Z,0
2017-02-02T07:01:02.967Z,0
2017-02-02T07:02:02.898Z,0
2017-02-02T07:03:02.462Z,0
2017-02-02T07:04:03.231Z,5
2017-02-02T07:05:02.889Z,5
2017-02-02T07:06:01.982Z,5
2017-02-02T07:07:02.768Z,5
2017-02-02T07:08:02.339Z,5
2017-02-02T07:09:01.968Z,5
2017-02-02T07:10:02.704Z,5
2017-02-02T07:11:02.766Z,5
2017-02-02T07:12:02.243Z,5
2017-02-02T07:13:01.413Z,10
2017-02-02T07:14:02.586Z,10
2017-02-02T07:15:02.640Z,10
2017-02-02T07:16:02.137Z,10
2017-02-02T07:17:02.164Z,15
2017-02-02T07:18:02.504Z,15
2017-02-02T07:19:02.515Z,15
2017-02-02T07:20:02.865Z,15
2017-02-02T07:21:02.084Z,20
2017-02-02T07:22:02.476Z,20
2017-02-02T07:23:02.402Z,20
2017-02-02T07:24:02.474Z,20
2017-02-02T07:25:01.919Z,20
2017-02-02T07:26:01.499Z,20
2017-02-02T07:27:01.889Z,25
2017-02-02T07:28:02.237Z,25
2017-02-02T07:29:02.216Z,25
2017-02-02T07:30:01.796Z,25
2017-02-02T07:31:02.197Z,30
2017-02-02T07:32:01.748Z,30
2017-02-02T07:33:02.215Z,30
2017-02-02T07:34:02.111Z,30
2017-02-02T07:35:02.184Z,30
2017-02-02T07:36:01.762Z,35
2017-02-02T07:37:02.033Z,35
2017-02-02T07:38:01.652Z,40
2017-02-02T07:39:01.190Z,40
2017-02-02T07:40:01.552Z,40
2017-02-02T07:41:01.177Z,45
2017-02-02T07:42:01.913Z,45
2017-02-02T07:43:02.298Z,50
2017-02-02T07:44:01.860Z,50
2017-02-02T07:45:01.500Z,55
2017-02-02T07:46:01.416Z,55
2017-02-02T07:47:02.265Z,55
2017-02-02T07:48:01.753Z,60
2017-02-02T07:49:01.739Z,65
2017-02-02T07:50:02.227Z,70
2017-02-02T07:51:01.686Z,70
2017-02-02T07:52:00.465Z,70
2017-02-02T07:53:01.256Z,75
2017-02-02T07:54:02.122Z,75
2017-02-02T07:55:01.605Z,75
2017-02-02T07:56:01.576Z,75
2017-02-02T07:57:01.143Z,85
2017-02-02T07:58:01.644Z,90
2017-02-02T07:59:01.486Z,80
2017-02-02T08:00:01.534Z,105
2017-02-02T08:01:01.500Z,95
2017-02-02T08:02:01.831Z,180
2017-02-02T08:03:01.055Z,190
2017-02-02T08:04:01.775Z,90
2017-02-02T08:05:01.439Z,135
2017-02-02T08:06:01.319Z,145
2017-02-02T08:07:00.547Z,75
2017-02-02T08:08:00.982Z,60
2017-02-02T08:09:00.057Z,50
2017-02-02T08:10:00.837Z,40
2017-02-02T08:11:01.218Z,40
2017-02-02T08:12:01.207Z,40
2017-02-02T08:13:01.179Z,40
2017-02-02T08:14:01.155Z,40
2017-02-02T08:15:01.126Z,45
2017-02-02T08:16:00.301Z,45
2017-02-02T08:17:00.263Z,50
2017-02-02T08:18:00.241Z,60
2017-02-02T08:19:00.646Z,65
2017-02-02T08:20:00.191Z,70
2017-02-02T08:21:00.569Z,80
2017-02-02T08:22:01.360Z,85
2017-02-02T08:23:00.525Z,85
2017-02-02T08:24:00.927Z,90
2017-02-02T08:25:00.870Z,100
2017-02-02T08:26:00.858Z,125
2017-02-02T08:27:00.836Z,155
2017-02-02T08:28:01.277Z,190
2017-02-02T08:29:00.376Z,200
2017-02-02T08:30:00.765Z,180
2017-02-02T08:31:01.186Z,160
2017-02-02T08:31:59.904Z,205
2017-02-02T08:33:00.713Z,145
2017-02-02T08:34:00.734Z,135
2017-02-02T08:35:00.245Z,165
2017-02-02T08:36:00.680Z,165
2017-02-02T08:37:00.602Z,145
2017-02-02T08:38:00.579Z,135
2017-02-02T08:38:59.752Z,135
2017-02-02T08:40:00.135Z,140
2017-02-02T08:41:00.520Z,140
2017-02-02T08:42:00.906Z,135
2017-02-02T08:43:00.479Z,140
2017-02-02T08:44:00.055Z,150
2017-02-02T08:44:59.678Z,145
2017-02-02T08:45:59.997Z,165
2017-02-02T08:46:59.976Z,145
2017-02-02T08:47:59.563Z,145
2017-02-02T08:49:00.350Z,225
2017-02-02T08:49:59.522Z,345
2017-02-02T08:51:00.715Z,330
2017-02-02T08:52:00.737Z,215
2017-02-02T08:53:00.266Z,420
2017-02-02T08:54:00.293Z,800
2017-02-02T08:54:59.812Z,815
2017-02-02T08:55:59.792Z,795
2017-02-02T08:57:00.188Z,825
2017-02-02T08:58:00.558Z,850
2017-02-02T08:59:00.536Z,700
2017-02-02T09:00:00.526Z,545
2017-02-02T09:01:00.109Z,670
2017-02-02T09:01:59.339Z,755
2017-02-02T09:02:59.656Z,845
2017-02-02T09:04:00.157Z,930
2017-02-02T09:05:00.525Z,980
2017-02-02T09:06:00.027Z,930
2017-02-02T09:06:59.686Z,900
2017-02-02T09:07:59.667Z,885
2017-02-02T09:08:59.975Z,880
2017-02-02T09:09:59.136Z,880
2017-02-02T09:10:59.513Z,890
2017-02-02T09:12:00.305Z,920
2017-02-02T09:13:00.283Z,935
2017-02-02T09:13:59.072Z,900
2017-02-02T09:14:59.448Z,910
2017-02-02T09:15:59.851Z,910
2017-02-02T09:17:00.239Z,915
2017-02-02T09:17:59.437Z,895
2017-02-02T09:18:59.418Z,855
2017-02-02T09:19:58.609Z,805
2017-02-02T09:20:59.369Z,935
2017-02-02T09:21:59.353Z,925
2017-02-02T09:23:00.196Z,900
2017-02-02T09:23:58.995Z,920
2017-02-02T09:24:59.706Z,975
2017-02-02T09:25:59.705Z,955
2017-02-02T09:26:59.700Z,965
2017-02-02T09:27:59.370Z,955
2017-02-02T09:28:59.259Z,980
2017-02-02T09:30:00.051Z,985
2017-02-02T09:30:59.692Z,990
2017-02-02T09:31:59.628Z,965
2017-02-02T09:32:59.609Z,945
2017-02-02T09:33:59.640Z,1000
2017-02-02T09:34:59.191Z,1050
2017-02-02T09:35:59.575Z,985
2017-02-02T09:36:59.157Z,915
2017-02-02T09:37:59.560Z,975
2017-02-02T09:38:59.593Z,1035
2017-02-02T09:39:59.917Z,1015
2017-02-02T09:40:58.295Z,1045
2017-02-02T09:41:59.582Z,1005
2017-02-02T09:42:59.096Z,925
2017-02-02T09:43:59.076Z,965
2017-02-02T09:44:59.451Z,1005
2017-02-02T09:45:59.164Z,1010
2017-02-02T09:46:59.044Z,1020
2017-02-02T09:47:59.474Z,1050
2017-02-02T09:48:59.402Z,1030
2017-02-02T09:49:59.393Z,990
2017-02-02T09:50:58.976Z,1020
2017-02-02T09:51:59.366Z,1040
2017-02-02T09:52:59.347Z,1010
2017-02-02T09:53:59.352Z,1010
2017-02-02T09:54:59.339Z,960
2017-02-02T09:55:59.727Z,745
2017-02-02T09:56:58.568Z,770
2017-02-02T09:57:59.292Z,620
2017-02-02T09:58:59.688Z,970
2017-02-02T09:59:59.311Z,960
2017-02-02T10:00:59.292Z,965
2017-02-02T10:01:58.834Z,820
2017-02-02T10:02:59.236Z,995
2017-02-02T10:03:59.645Z,995
2017-02-02T10:04:59.628Z,1140
2017-02-02T10:05:58.804Z,1105
2017-02-02T10:06:58.813Z,825
2017-02-02T10:07:59.581Z,680
2017-02-02T10:08:59.192Z,620
2017-02-02T10:09:59.181Z,610
2017-02-02T10:10:59.539Z,455
2017-02-02T10:11:58.720Z,435
2017-02-02T10:12:59.520Z,465
2017-02-02T10:13:58.688Z,435
2017-02-02T10:14:58.698Z,415
2017-02-02T10:15:58.714Z,420
2017-02-02T10:16:58.651Z,450
2017-02-02T10:17:59.137Z,535
2017-02-02T10:18:58.637Z,700
2017-02-02T10:19:58.596Z,765
2017-02-02T10:20:58.593Z,785
2017-02-02T10:21:58.967Z,585
2017-02-02T10:22:59.064Z,540
2017-02-02T10:23:58.554Z,855
2017-02-02T10:24:59.505Z,955
2017-02-02T10:25:59.331Z,965
2017-02-02T10:26:58.894Z,910
2017-02-02T10:27:58.921Z,960
2017-02-02T10:28:58.901Z,915
2017-02-02T10:29:58.911Z,880
2017-02-02T10:30:58.030Z,890
2017-02-02T10:31:58.461Z,835
2017-02-02T10:32:59.267Z,840
2017-02-02T10:33:58.000Z,860
2017-02-02T10:34:59.278Z,820
2017-02-02T10:35:58.403Z,820
2017-02-02T10:36:58.006Z,830
2017-02-02T10:37:58.749Z,865
2017-02-02T10:38:58.740Z,850
2017-02-02T10:39:57.916Z,855
2017-02-02T10:40:58.703Z,835
2017-02-02T10:41:58.315Z,745
2017-02-02T10:42:57.880Z,765
2017-02-02T10:43:59.073Z,765
2017-02-02T10:44:58.663Z,715
2017-02-02T10:45:58.248Z,715
2017-02-02T10:46:59.091Z,740
2017-02-02T10:47:58.243Z,740
2017-02-02T10:48:58.619Z,700
2017-02-02T10:49:58.198Z,720
2017-02-02T10:50:59.004Z,780
2017-02-02T10:51:57.778Z,755
2017-02-02T10:52:58.569Z,720
2017-02-02T10:53:58.560Z,735
2017-02-02T10:54:58.953Z,690
2017-02-02T10:55:58.118Z,660
2017-02-02T10:56:58.516Z,685
2017-02-02T10:57:58.506Z,700
2017-02-02T10:58:58.517Z,905
2017-02-02T10:59:58.894Z,660
2017-02-02T11:00:57.662Z,425
2017-02-02T11:01:58.465Z,435
2017-02-02T11:02:58.891Z,475
2017-02-02T11:03:58.431Z,450
2017-02-02T11:04:58.421Z,275
2017-02-02T11:05:58.409Z,265
2017-02-02T11:06:57.593Z,260
2017-02-02T11:07:58.790Z,240
2017-02-02T11:08:57.969Z,260
2017-02-02T11:09:58.364Z,530
2017-02-02T11:10:57.550Z,495
2017-02-02T11:11:58.751Z,375
2017-02-02T11:12:58.332Z,350
2017-02-02T11:13:58.715Z,425
2017-02-02T11:14:57.887Z,485
2017-02-02T11:15:58.546Z,525
2017-02-02T11:16:58.348Z,520
2017-02-02T11:17:57.948Z,545
2017-02-02T11:18:58.639Z,325
2017-02-02T11:19:58.216Z,320
2017-02-02T11:20:58.345Z,295
2017-02-02T11:21:58.191Z,365
2017-02-02T11:22:57.763Z,630
2017-02-02T11:23:58.709Z,945
2017-02-02T11:24:58.141Z,690
2017-02-02T11:25:57.421Z,550
2017-02-02T11:26:58.152Z,430
2017-02-02T11:27:58.140Z,435
2017-02-02T11:28:57.268Z,670
2017-02-02T11:29:58.079Z,425
2017-02-02T11:30:58.046Z,345
2017-02-02T11:31:58.440Z,340
2017-02-02T11:32:58.037Z,435
2017-02-02T11:33:57.997Z,845
2017-02-02T11:34:57.638Z,990
2017-02-02T11:35:57.987Z,900
2017-02-02T11:36:58.086Z,1005
2017-02-02T11:37:57.643Z,990
2017-02-02T11:38:58.425Z,985
2017-02-02T11:39:57.914Z,985
2017-02-02T11:40:57.493Z,975
2017-02-02T11:41:58.283Z,990
2017-02-02T11:42:58.389Z,995
2017-02-02T11:43:56.644Z,975
2017-02-02T11:44:56.643Z,975
2017-02-02T11:45:57.832Z,955
2017-02-02T11:46:58.217Z,945
2017-02-02T11:47:58.209Z,945
2017-02-02T11:48:56.989Z,920
2017-02-02T11:49:57.489Z,925
2017-02-02T11:50:56.939Z,890
2017-02-02T11:51:56.936Z,890
2017-02-02T11:52:58.146Z,910
2017-02-02T11:53:57.314Z,915
2017-02-02T11:54:57.702Z,905
2017-02-02T11:55:57.706Z,910
2017-02-02T11:56:56.874Z,895
2017-02-02T11:57:57.273Z,880
2017-02-02T11:58:57.679Z,900
2017-02-02T11:59:58.044Z,830
2017-02-02T12:00:58.093Z,910
2017-02-02T12:01:57.256Z,935
2017-02-02T12:02:56.781Z,970
2017-02-02T12:03:57.591Z,1005
2017-02-02T12:04:57.681Z,1045
2017-02-02T12:05:57.561Z,875
2017-02-02T12:06:56.880Z,1060
2017-02-02T12:07:57.576Z,1060
2017-02-02T12:08:57.127Z,1035
2017-02-02T12:09:57.898Z,1060
2017-02-02T12:10:57.157Z,885
2017-02-02T12:11:57.888Z,975
2017-02-02T12:12:57.567Z,995
2017-02-02T12:13:56.641Z,1005
2017-02-02T12:14:57.468Z,1020
2017-02-02T12:15:56.638Z,1040
2017-02-02T12:16:57.914Z,995
2017-02-02T12:17:57.014Z,1015
2017-02-02T12:18:56.608Z,975
2017-02-02T12:19:56.605Z,960
2017-02-02T12:20:56.953Z,1010
2017-02-02T12:21:57.825Z,960
2017-02-02T12:22:57.350Z,940
2017-02-02T12:23:57.317Z,960
2017-02-02T12:24:57.301Z,965
2017-02-02T12:25:56.892Z,960
2017-02-02T12:26:56.990Z,960
2017-02-02T12:27:57.268Z,980
2017-02-02T12:28:56.539Z,995
2017-02-02T12:29:56.894Z,975
2017-02-02T12:30:56.825Z,940
2017-02-02T12:31:57.225Z,915
2017-02-02T12:32:57.641Z,910
2017-02-02T12:33:56.785Z,890
2017-02-02T12:34:56.389Z,885
2017-02-02T12:35:56.751Z,895
2017-02-02T12:36:56.743Z,890
2017-02-02T12:37:57.144Z,890
2017-02-02T12:38:57.570Z,860
2017-02-02T12:39:56.292Z,855
2017-02-02T12:40:57.220Z,865
2017-02-02T12:41:57.492Z,840
2017-02-02T12:42:56.269Z,840
2017-02-02T12:43:56.732Z,835
2017-02-02T12:44:57.439Z,825
2017-02-02T12:45:56.673Z,835
2017-02-02T12:46:57.022Z,830
2017-02-02T12:47:56.768Z,805
2017-02-02T12:48:56.613Z,795
2017-02-02T12:49:56.984Z,790
2017-02-02T12:50:56.975Z,765
2017-02-02T12:51:57.064Z,765
2017-02-02T12:52:57.139Z,760
2017-02-02T12:53:57.013Z,745
2017-02-02T12:54:57.057Z,740
2017-02-02T12:55:57.312Z,705
2017-02-02T12:56:57.311Z,645
2017-02-02T12:57:56.892Z,585
2017-02-02T12:58:56.081Z,630
2017-02-02T12:59:57.250Z,665
2017-02-02T13:00:56.841Z,640
2017-02-02T13:01:56.430Z,640
2017-02-02T13:02:56.407Z,620
2017-02-02T13:03:56.791Z,360
2017-02-02T13:04:56.829Z,290
2017-02-02T13:05:56.775Z,275
2017-02-02T13:06:56.844Z,300
2017-02-02T13:07:56.817Z,305
2017-02-02T13:08:56.726Z,275
2017-02-02T13:09:56.715Z,285
2017-02-02T13:10:56.372Z,235
2017-02-02T13:11:56.279Z,245
2017-02-02T13:12:56.724Z,340
2017-02-02T13:13:56.253Z,460
2017-02-02T13:14:56.716Z,455
2017-02-02T13:15:57.068Z,435
2017-02-02T13:16:56.221Z,430
2017-02-02T13:17:56.629Z,440
2017-02-02T13:18:56.685Z,445
2017-02-02T13:19:56.168Z,455
2017-02-02T13:20:57.008Z,460
2017-02-02T13:21:56.133Z,475
2017-02-02T13:22:56.596Z,465
2017-02-02T13:23:57.038Z,455
2017-02-02T13:24:55.699Z,450
2017-02-02T13:25:56.086Z,445
2017-02-02T13:26:56.476Z,435
2017-02-02T13:27:56.449Z,440
2017-02-02T13:28:56.857Z,465
2017-02-02T13:29:56.065Z,470
2017-02-02T13:30:56.834Z,420
2017-02-02T13:31:56.812Z,440
2017-02-02T13:32:56.393Z,445
2017-02-02T13:33:56.394Z,440
2017-02-02T13:34:56.371Z,405
2017-02-02T13:35:55.941Z,355
2017-02-02T13:36:55.530Z,395
2017-02-02T13:37:55.604Z,410
2017-02-02T13:38:56.319Z,420
2017-02-02T13:39:55.497Z,405
2017-02-02T13:40:56.689Z,390
2017-02-02T13:41:55.548Z,350
2017-02-02T13:42:56.677Z,255
2017-02-02T13:43:56.238Z,205
2017-02-02T13:44:56.316Z,190
2017-02-02T13:45:55.805Z,200
2017-02-02T13:46:56.584Z,190
2017-02-02T13:47:56.204Z,210
2017-02-02T13:48:56.176Z,230
2017-02-02T13:49:56.143Z,230
2017-02-02T13:50:55.328Z,200
2017-02-02T13:51:56.123Z,230
2017-02-02T13:52:56.134Z,190
2017-02-02T13:53:56.132Z,140
2017-02-02T13:54:56.111Z,110
2017-02-02T13:55:55.274Z,95
2017-02-02T13:56:56.587Z,85
2017-02-02T13:57:56.192Z,85
2017-02-02T13:58:55.608Z,80
2017-02-02T13:59:55.195Z,75
2017-02-02T14:00:55.639Z,70
2017-02-02T14:01:55.574Z,70
2017-02-02T14:02:56.371Z,65
2017-02-02T14:03:55.537Z,65
2017-02-02T14:04:55.932Z,65
2017-02-02T14:05:55.519Z,65
2017-02-02T14:06:55.964Z,65
2017-02-02T14:07:56.323Z,65
2017-02-02T14:08:56.293Z,65
2017-02-02T14:09:55.463Z,65
2017-02-02T14:10:56.334Z,60
2017-02-02T14:11:55.809Z,60
2017-02-02T14:12:55.401Z,55
2017-02-02T14:13:56.223Z,55
2017-02-02T14:14:55.884Z,55
2017-02-02T14:15:55.779Z,55
2017-02-02T14:16:56.348Z,55
2017-02-02T14:17:56.128Z,55